Destruction Bay, Canada
Current Conditions -  °F | °C
As of 12:00 AM on Friday 19 Dec 2014 (Local Time) from CYDB Reporting Station
Overcast Overcast  
Wind Chill:   Ceiling: 12000
Heat Index:   Visibility: 9mi
Dew Point: -4°   Wind: 0mph
Humidity: 85%   Direction: NA
Pressure: 29.42"   Gusts: NA
Location:  61.25°N, 138.8°W
Report Text: CYDB 190800Z AUTO 00000KT 9SM FEW070 SCT100 BKN120 OVC190 M18/M20 A2942 RMK SLP046
Loading
Personal Weather Stations






























Interactive Weather Map New forecast layout! Learn more

10-Day Weather Forecast

Advertisements
Track Severe Weather on mobile